Latest Weather Observations for Cape Willoughby

IDS60801

Issued at 1:35 pm CST Tuesday 2 September 2014 (issued every 30 minutes, with the page automatically refreshed every 10 minutes)

About weather observations | Map of weather stations | Latest weather observations for SA | Other Formats
Station Details ID: 022803 Name: CAPE WILLOUGHBY Lat: -35.84 Lon: 138.13 Height: 55.0 m
Data from the previous 72 hours. | See also: Recent months at Cape Willoughby
Date/Time
CST
Temp
°C
App
Temp
°C
Dew
Point
Rel
Hum
%
Delta-T
°C
Wind Press
QNH
hPa
Press
MSL
hPa
Rain
since 9 am
mm
Dir
 
Spd
km/h
Gust
km/h
Spd
kts
Gust
kts
02/01:30pm 12.4 8.1 7.7 73 2.3 S 20 32 11 17 1025.4 1025.4 0.0
02/01:00pm 12.5 7.0 7.4 71 2.5 S 26 33 14 18 1025.3 1025.3 0.0
02/12:30pm 12.9 7.8 7.6 70 2.6 S 24 32 13 17 1025.5 1025.5 0.0
02/12:00pm 12.6 7.1 7.5 71 2.5 S 26 32 14 17 1025.4 1025.4 0.0
02/11:30am 13.0 7.0 5.4 60 3.5 S 26 32 14 17 1025.4 1025.4 0.0
02/11:00am 13.0 6.3 5.7 61 3.4 S 30 37 16 20 1025.6 1025.6 0.0
02/10:30am 12.7 7.4 7.0 68 2.7 S 24 30 13 16 1025.7 1025.7 0.0
02/10:00am 12.5 6.5 7.0 69 2.7 S 28 35 15 19 1025.4 1025.4 0.0
02/09:30am 12.1 5.1 5.9 66 2.9 S 32 41 17 22 1025.2 1025.2 0.0
02/09:00am 12.2 5.2 5.8 65 3.0 S 32 43 17 23 1024.5 1024.5 4.4
02/08:30am 12.2 5.0 6.0 66 2.9 S 33 41 18 22 1024.7 1024.7 4.4
02/08:00am 11.8 3.9 6.3 69 2.6 S 37 43 20 23 1024.5 1024.5 4.4
02/07:30am 12.1 4.4 5.3 63 3.1 S 35 44 19 24 1023.9 1023.9 4.4
02/07:18am 11.8 5.4 5.4 65 3.0 S 28 46 15 25 1023.6 1023.6 4.4
02/07:00am 11.6 4.6 6.9 73 2.2 S 33 41 18 22 1023.4 1023.4 4.4
02/06:30am 11.1 3.4 5.2 67 2.7 S 35 46 19 25 1022.9 1022.9 4.4
02/06:00am 11.3 3.0 6.0 70 2.5 S 39 52 21 28 1022.3 1022.3 4.4
02/05:30am 10.9 1.9 7.4 79 1.7 S 44 63 24 34 1021.3 1021.3 4.4
02/05:28am 11.3 3.1 8.0 80 1.6 S 41 63 22 34 1021.4 1021.4 4.4
02/05:00am 11.4 3.4 5.7 68 2.6 S 37 50 20 27 1021.2 1021.2 4.4
02/04:30am 11.4 3.4 5.5 67 2.7 S 37 52 20 28 1020.9 1020.9 4.4
02/04:00am 11.2 4.0 5.9 70 2.5 S 33 48 18 26 1020.7 1020.7 4.4
02/03:30am 11.3 3.1 5.0 65 2.9 S 37 54 20 29 1020.0 1020.0 4.4
02/03:00am 11.2 4.7 6.5 73 2.2 S 30 48 16 26 1020.0 1020.0 4.4
02/02:33am 10.4 1.1 5.0 69 2.5 SSW 43 61 23 33 1019.8 1019.9 4.4
02/02:30am 10.3 0.3 4.5 67 2.6 SSW 46 61 25 33 1020.0 1020.0 4.4
02/02:01am 10.7 4.4 5.5 70 2.4 S 28 46 15 25 1020.0 1020.0 4.4
02/02:00am 10.6 3.8 5.2 69 2.5 S 30 46 16 25 1020.0 1020.0 4.4
02/01:46am 10.8 2.1 5.8 71 2.3 SSW 41 63 22 34 1019.3 1019.4 4.4
02/01:30am 10.7 1.1 4.4 65 2.8 SSW 44 56 24 30 1019.5 1019.6 4.4
02/01:00am 10.3 2.0 6.3 76 1.9 SW 39 48 21 26 1019.4 1019.5 4.4
02/12:30am 11.2 2.9 4.0 61 3.2 SSW 37 52 20 28 1019.0 1019.1 4.4
02/12:18am 10.8 1.8 4.3 64 2.9 SSW 41 59 22 32 1019.1 1019.2 4.4
02/12:00am 11.1 0.9 3.4 59 3.4 SW 46 57 25 31 1018.9 1018.9 4.4
 
Date/Time
CST
Temp
°C
App
Temp
°C
Dew
Point
Rel
Hum
%
Delta-T
°C
Wind Press
QNH
hPa
Press
MSL
hPa
Rain
since 9 am
mm
Dir
 
Spd
km/h
Gust
km/h
Spd
kts
Gust
kts
01/11:30pm 10.9 1.6 5.0 67 2.7 SSW 43 54 23 29 1018.9 1018.9 4.4
01/11:01pm 11.3 4.2 5.4 67 2.7 SW 32 56 17 30 1018.6 1018.6 4.4
01/11:00pm 11.1 4.7 5.2 67 2.7 SW 28 43 15 23 1018.7 1018.7 4.4
01/10:43pm 10.6 3.1 3.2 60 3.2 WSW 32 39 17 21 1018.8 1018.8 4.4
01/10:30pm 11.3 1.9 4.5 63 3.1 SSW 43 56 23 30 1018.2 1018.2 4.4
01/10:23pm 11.2 3.0 4.7 64 2.9 SW 37 56 20 30 1018.2 1018.2 4.4
01/10:00pm 10.9 0.5 4.4 64 2.9 SW 48 56 26 30 1017.9 1017.9 4.4
01/09:30pm 10.9 1.2 5.9 71 2.3 SW 46 65 25 35 1017.3 1017.3 4.4
01/09:28pm 11.3 2.0 5.8 69 2.6 SW 44 65 24 35 1017.6 1017.6 4.4
01/09:00pm 11.1 1.9 5.4 68 2.6 SSW 43 56 23 30 1017.4 1017.4 4.4
01/08:30pm 10.1 2.6 6.1 76 1.9 SSW 35 54 19 29 1017.4 1017.4 4.4
01/08:23pm 10.4 4.2 7.8 84 1.3 SW 30 50 16 27 1017.4 1017.4 4.4
01/08:00pm 9.4 -0.8 7.0 85 1.1 SW 50 67 27 36 1017.2 1017.2 4.2
01/07:51pm 10.5 2.8 7.0 79 1.7 SSW 37 63 20 34 1016.7 1016.7 3.8
01/07:30pm 9.8 3.7 6.7 81 1.5 WSW 28 37 15 20 1016.8 1016.8 3.8
01/07:00pm 9.6 0.7 6.7 82 1.4 WSW 43 63 23 34 1016.3 1016.3 3.4
01/06:57pm 9.9 1.9 7.3 84 1.2 WSW 39 57 21 31 1016.3 1016.3 3.2
01/06:30pm 10.2 3.4 6.7 79 1.6 WSW 32 43 17 23 1015.8 1015.8 3.2
01/06:00pm 10.2 4.5 8.3 88 0.9 SW 28 39 15 21 1015.5 1015.5 3.2
01/05:43pm 9.9 4.2 8.3 90 0.8 WSW 28 52 15 28 1015.3 1015.3 2.8
01/05:30pm 10.2 4.8 8.1 87 1.0 SW 26 33 14 18 1015.1 1015.1 1.8
01/05:00pm 10.9 6.4 8.7 86 1.1 WSW 22 32 12 17 1014.8 1014.8 1.2
01/04:30pm 10.9 6.4 8.7 86 1.1 W 22 28 12 15 1014.6 1014.6 1.0
01/04:00pm 11.7 7.1 8.0 78 1.8 W 22 32 12 17 1014.4 1014.4 0.6
01/03:30pm 12.5 7.8 7.6 72 2.4 W 22 30 12 16 1013.8 1013.8 0.6
01/03:00pm 11.0 3.8 7.5 79 1.7 W 35 48 19 26 1013.9 1013.9 0.0
01/02:47pm 12.8 6.7 6.8 67 2.9 WSW 28 52 15 28 1013.5 1013.5 0.0
01/02:30pm 13.8 7.3 6.7 62 3.4 SW 30 39 16 21 1013.3 1013.3 0.0
01/02:00pm 13.8 6.7 6.4 61 3.6 SW 33 44 18 24 1013.4 1013.4 0.0
01/01:30pm 13.8 7.2 6.2 60 3.6 SW 30 39 16 21 1013.4 1013.4 0.0
01/01:00pm 14.0 7.4 6.1 59 3.8 SW 30 41 16 22 1013.5 1013.5 0.0
01/12:30pm 13.7 6.5 5.1 56 4.0 SW 32 44 17 24 1013.7 1013.7 0.0
01/12:00pm 13.5 6.4 6.6 63 3.3 SW 33 44 18 24 1013.7 1013.7 0.0
01/11:30am 14.4 8.4 8.8 69 2.8 SW 30 39 16 21 1013.7 1013.7 0.0
01/11:00am 12.8 6.3 8.1 73 2.3 SSW 32 43 17 23 1013.5 1013.5 0.0
01/10:30am 13.4 7.1 7.6 68 2.9 SW 30 41 16 22 1013.4 1013.4 0.0
01/10:00am 13.3 6.8 8.0 70 2.6 SW 32 39 17 21 1013.4 1013.4 0.0
01/09:30am 13.3 7.4 7.5 68 2.8 SW 28 37 15 20 1013.2 1013.2 0.0
01/09:00am 12.7 8.2 8.6 76 2.0 W 22 30 12 16 1013.1 1013.1 2.2
01/08:30am 12.3 8.5 9.7 84 1.3 W 20 30 11 16 1012.9 1012.9 2.2
01/08:00am 11.1 7.5 9.7 91 0.7 W 19 26 10 14 1012.6 1012.6 2.2
01/07:30am 10.6 7.6 9.2 91 0.7 W 15 20 8 11 1012.3 1012.3 2.2
01/07:00am 11.0 7.3 9.4 90 0.8 WSW 19 22 10 12 1012.2 1012.2 2.2
01/06:30am 11.3 7.5 9.9 91 0.7 W 20 30 11 16 1011.9 1011.9 2.2
01/06:00am 11.4 7.7 10.0 91 0.7 W 20 26 11 14 1011.3 1011.3 2.2
01/05:30am 11.4 7.7 10.0 91 0.7 W 20 26 11 14 1011.1 1011.1 2.2
01/05:00am 11.3 7.6 10.0 92 0.7 W 20 26 11 14 1010.7 1010.7 2.2
01/04:30am 11.4 7.9 10.1 92 0.7 W 19 24 10 13 1010.4 1010.4 2.2
01/04:00am 11.5 8.1 10.4 93 0.6 WNW 19 24 10 13 1010.4 1010.4 2.2
01/03:30am 11.8 8.4 10.5 92 0.7 W 19 24 10 13 1010.4 1010.4 2.2
01/03:00am 11.8 8.2 10.7 93 0.6 WNW 20 26 11 14 1010.5 1010.5 2.2
01/02:30am 11.9 8.5 10.6 92 0.7 WNW 19 24 10 13 1010.6 1010.6 2.2
01/02:00am 12.0 8.5 10.9 93 0.6 WNW 20 22 11 12 1010.9 1010.9 2.2
01/01:30am 12.1 8.6 11.0 93 0.6 WNW 20 24 11 13 1010.9 1010.9 2.0
01/01:00am 12.2 8.8 11.1 93 0.6 WNW 20 28 11 15 1011.2 1011.2 2.0
01/12:30am 12.1 9.3 11.2 94 0.5 WNW 17 20 9 11 1011.1 1011.1 2.0
01/12:00am 12.0 9.5 11.2 95 0.4 NW 15 20 8 11 1011.0 1011.0 2.0
 
Date/Time
CST
Temp
°C
App
Temp
°C
Dew
Point
Rel
Hum
%
Delta-T
°C
Wind Press
QNH
hPa
Press
MSL
hPa
Rain
since 9 am
mm
Dir
 
Spd
km/h
Gust
km/h
Spd
kts
Gust
kts
31/11:30pm 12.2 9.8 11.3 94 0.5 NW 15 19 8 10 1011.2 1011.2 2.0
31/11:00pm 12.3 10.5 10.9 91 0.7 W 11 15 6 8 1010.5 1010.5 1.4
31/10:30pm 12.6 10.5 11.2 91 0.7 W 13 19 7 10 1010.5 1010.5 0.8
31/10:00pm 12.6 9.4 11.2 91 0.7 W 19 26 10 14 1010.5 1010.5 0.8
31/09:30pm 12.7 6.8 11.1 90 0.8 WSW 33 44 18 24 1009.9 1009.9 0.6
31/09:00pm 13.4 8.4 12.3 93 0.6 WSW 30 39 16 21 1010.2 1010.2 0.4
31/08:55pm 13.5 8.5 12.2 92 0.7 WSW 30 39 16 21 1010.5 1010.5 0.2
31/08:30pm 13.7 11.6 11.2 85 1.3 W 13 19 7 10 1010.6 1010.6 0.0
31/08:00pm 13.9 9.8 10.1 78 2.0 WNW 22 28 12 15 1011.0 1011.0 0.0
31/07:30pm 14.4 9.1 8.6 68 2.9 WNW 26 32 14 17 1010.1 1010.1 0.0
31/07:00pm 15.0 9.9 7.8 62 3.6 WNW 24 30 13 16 1009.9 1009.9 0.0
31/06:30pm 15.2 10.3 7.0 58 4.0 NW 22 28 12 15 1010.0 1010.0 0.0
31/06:00pm 14.5 11.3 6.8 60 3.8 NW 13 19 7 10 1009.6 1009.6 0.0
31/05:30pm 15.1 13.0 11.1 77 2.1 NNW 13 19 7 10 1009.7 1009.7 0.0
31/05:00pm 15.6 13.8 10.8 73 2.6 NW 11 15 6 8 1009.4 1009.4 0.0
31/04:30pm 16.2 13.6 9.2 63 3.6 N 13 17 7 9 1009.2 1009.2 0.0
31/04:00pm 17.1 13.8 9.5 61 4.0 NNW 17 22 9 12 1009.9 1009.9 0.0
31/03:30pm 16.7 10.6 9.9 64 3.6 NNW 32 39 17 21 1009.6 1009.6 0.0
31/03:00pm 16.9 12.5 9.1 60 4.1 NNW 22 39 12 21 1009.4 1009.4 0.0
31/02:30pm 16.7 10.9 9.6 63 3.7 N 30 37 16 20 1008.7 1008.7 0.0
31/02:00pm 16.9 9.7 7.8 55 4.6 NNW 35 46 19 25 1009.3 1009.3 0.0
31/01:30pm 16.3 9.1 7.5 56 4.4 NNW 35 44 19 24 1009.9 1009.9 0.0
31/01:00pm 16.8 8.1 7.7 55 4.6 NNW 43 54 23 29 1010.7 1010.7 0.0
31/12:30pm 16.4 7.4 7.1 54 4.6 NNW 44 52 24 28 1011.2 1011.2 0.0
31/12:00pm 16.7 6.8 6.8 52 4.9 NNW 48 59 26 32 1011.9 1011.9 0.0
31/11:30am 16.8 6.8 6.3 50 5.2 N 48 57 26 31 1012.1 1012.1 0.0
31/11:00am 16.9 6.8 5.8 48 5.4 NNW 48 57 26 31 1012.3 1012.3 0.0
31/10:30am 17.4 7.4 6.3 48 5.5 NNW 48 59 26 32 1012.5 1012.5 0.0
31/10:00am 16.3 6.4 6.4 52 4.8 NNW 48 61 26 33 1012.7 1012.7 0.0
31/09:30am 16.3 5.3 5.0 47 5.4 NNW 52 63 28 34 1013.1 1013.1 0.0
31/09:00am 16.5 5.5 5.2 47 5.4 NNW 52 67 28 36 1013.1 1013.1 0.0
31/08:30am 16.9 6.1 4.3 43 5.9 NNW 50 69 27 37 1012.9 1012.9 0.0
31/08:28am 16.9 6.4 3.9 42 6.1 NNW 48 69 26 37 1012.8 1012.8 0.0
31/08:00am 16.6 4.8 4.6 45 5.7 NNW 56 67 30 36 1012.6 1012.6 0.0
31/07:52am 16.4 6.0 4.1 44 5.7 NNW 48 67 26 36 1012.7 1012.7 0.0
31/07:30am 16.1 5.1 5.1 48 5.2 NNW 52 67 28 36 1012.9 1012.9 0.0
31/07:00am 16.2 6.6 4.3 45 5.6 NNW 44 63 24 34 1013.3 1013.3 0.0
31/06:51am 16.1 6.7 5.4 49 5.1 NNW 44 63 24 34 1013.5 1013.5 0.0
31/06:30am 16.1 5.1 5.1 48 5.2 NNW 52 65 28 35 1013.0 1013.0 0.0
31/06:00am 16.0 7.2 5.6 50 5.0 NNW 41 56 22 30 1013.4 1013.4 0.0
31/05:30am 16.6 8.4 4.6 45 5.7 NNW 37 52 20 28 1013.5 1013.5 0.0
31/05:00am 16.7 8.5 5.0 46 5.6 NNW 37 48 20 26 1013.6 1013.6 0.0
31/04:30am 15.8 9.2 6.0 52 4.7 NNW 30 39 16 21 1013.9 1013.9 0.0
31/04:00am 15.7 9.5 6.2 53 4.6 NNW 28 39 15 21 1014.0 1014.0 0.0
31/03:30am 16.2 10.1 6.6 53 4.7 N 28 35 15 19 1014.0 1014.0 0.0
31/03:00am 16.1 10.2 6.0 51 4.9 NNW 26 33 14 18 1013.8 1013.8 0.0
31/02:30am 16.1 9.9 6.0 51 4.9 N 28 37 15 20 1014.0 1014.0 0.0
31/02:00am 16.1 8.6 6.5 53 4.7 N 35 43 19 23 1014.6 1014.6 0.0
31/01:30am 15.8 8.9 7.1 56 4.3 NNW 33 44 18 24 1015.0 1015.0 0.0
31/01:00am 15.6 7.1 9.3 66 3.3 NNW 44 54 24 29 1014.9 1014.9 0.0
31/12:30am 16.1 7.2 9.1 63 3.6 NNW 46 54 25 29 1015.1 1015.1 0.0
31/12:00am 17.4 10.0 6.9 50 5.2 NNW 35 46 19 25 1015.4 1015.5 0.0
 
Date/Time
CST
Temp
°C
App
Temp
°C
Dew
Point
Rel
Hum
%
Delta-T
°C
Wind Press
QNH
hPa
Press
MSL
hPa
Rain
since 9 am
mm
Dir
 
Spd
km/h
Gust
km/h
Spd
kts
Gust
kts
30/11:40pm 17.9 10.1 6.7 48 5.6 N 37 50 20 27 1015.4 1015.5 0.0
30/11:30pm 16.1 10.9 8.8 62 3.7 N 26 30 14 16 1015.7 1015.8 0.0
30/11:00pm 15.8 11.9 9.5 66 3.3 N 20 24 11 13 1016.0 1016.1 0.0
30/10:30pm 15.9 12.7 8.6 62 3.7 N 15 19 8 10 1016.2 1016.3 0.0
30/10:00pm 15.9 13.1 8.4 61 3.8 N 13 15 7 8 1016.8 1016.9 0.0
30/09:30pm 15.9 12.9 7.7 58 4.1 N 13 15 7 8 1017.2 1017.3 0.0
30/09:00pm 15.0 12.4 7.8 62 3.6 N 11 13 6 7 1017.7 1017.8 0.0
30/08:30pm 15.4 13.0 6.9 57 4.2 N 9 11 5 6 1017.8 1017.9 0.0
30/08:00pm 15.5 13.6 9.2 66 3.2 NE 9 11 5 6 1017.9 1018.0 0.0
30/07:30pm 15.9 13.6 8.9 63 3.6 NNE 11 17 6 9 1017.8 1017.9 0.0
30/07:00pm 16.1 13.5 7.6 57 4.3 N 11 15 6 8 1017.9 1018.0 0.0
30/06:30pm 15.9 14.3 8.6 62 3.7 N 7 9 4 5 1018.0 1018.1 0.0
30/06:00pm 15.0 13.0 10.2 73 2.5 N 11 15 6 8 1018.1 1018.2 0.0
30/05:30pm 16.9 12.2 7.8 55 4.6 NNW 22 24 12 13 1018.2 1018.3 0.0
30/05:00pm 17.4 11.5 7.5 52 5.0 NNW 28 33 15 18 1018.3 1018.4 0.0
30/04:56pm 17.5 11.6 7.5 52 5.0 NNW 28 33 15 18 1018.3 1018.4 0.0
30/04:30pm 17.7 16.1 8.6 55 4.7 N 7 15 4 8 1018.5 1018.6 0.0
30/04:00pm 18.1 14.9 10.0 59 4.3 N 17 22 9 12 1018.4 1018.5 0.0
30/03:30pm 18.4 14.1 9.2 55 4.8 NNW 22 28 12 15 1018.5 1018.6 0.0
30/03:00pm 19.1 14.4 9.3 53 5.2 NNW 24 30 13 16 1018.8 1018.9 0.0
30/02:30pm 19.3 15.7 10.0 55 5.0 N 19 22 10 12 1019.2 1019.3 0.0
30/02:00pm 19.4 15.9 10.1 55 5.0 N 19 24 10 13 1019.7 1019.8 0.0

Other Formats:

Comma delimited format used in spreadsheet applications
http://www.bom.gov.au/fwo/IDS60801/IDS60801.94822.axf

JavaScript Object Notation format (JSON) in row-major order
http://www.bom.gov.au/fwo/IDS60801/IDS60801.94822.json